Time;durP1;ratioP1;P1;durP2;ratioP2;P2;SDS_P1;SDS_P2;PMS_P1;PMS_P2;Temp;Humidity;BMP_temperature;BMP_pressure;BME280_temperature;BME280_humidity;BME280_pressure;Samples;Min_cycle;Max_cycle;Signal;HPM_P1;HPM_P2
2022/04/09 00:35:34;;;;;;;4.70;1.98;;;;;;;8.31;61.61;95590.56;5113895;28;20082;-63
2022/04/09 00:37:59;;;;;;;2.28;1.75;;;;;;;8.31;61.48;95595.75;5113661;28;20468;-63
2022/04/09 00:40:26;;;;;;;4.20;1.85;;;;;;;8.27;61.62;95599.41;5113434;28;20019;-64
2022/04/09 00:42:52;;;;;;;3.08;1.95;;;;;;;8.18;61.32;95601.50;5117638;28;20042;-64
2022/04/09 00:49:15;;;;;;;3.78;1.90;;;;;;;8.01;62.21;95599.59;5117665;28;20425;-63
2022/04/09 00:51:42;;;;;;;;;;;;;;;7.96;62.64;95601.56;5117905;28;20025;-63
2022/04/09 00:54:11;;;;;;;3.00;2.00;;;;;;;7.81;62.33;95598.72;5117215;28;19915;-63
2022/04/09 00:56:38;;;;;;;9.65;2.03;;;;;;;7.67;62.91;95596.69;5117104;28;20020;-63
2022/04/09 00:59:06;;;;;;;5.43;1.60;;;;;;;7.65;63.22;95595.06;5116958;27;20024;-63
2022/04/09 01:01:37;;;;;;;2.03;1.83;;;;;;;7.67;63.03;95599.28;5117100;28;20015;-63
2022/04/09 01:04:11;;;;;;;5.78;1.60;;;;;;;7.49;63.70;95593.06;5116940;28;20041;-63
2022/04/09 01:06:38;;;;;;;5.80;1.90;;;;;;;7.35;64.62;95593.66;5117084;28;20074;-63
2022/04/09 01:12:25;;;;;;;2.78;2.00;;;;;;;7.29;64.07;95599.94;5116984;28;20546;-63
2022/04/09 01:14:51;;;;;;;5.88;2.30;;;;;;;7.33;64.48;95604.13;5116823;28;20024;-63
2022/04/09 01:17:17;;;;;;;2.97;2.05;;;;;;;7.39;64.24;95596.97;5116693;28;20359;-63
2022/04/09 01:23:04;;;;;;;3.80;1.80;;;;;;;7.24;63.84;95588.00;5117028;28;20077;-63
2022/04/09 01:25:30;;;;;;;4.70;2.20;;;;;;;7.16;64.53;95585.72;5116583;28;20059;-63
2022/04/09 01:27:55;;;;;;;3.13;1.90;;;;;;;7.10;64.88;95581.59;5116696;28;20036;-63
2022/04/09 01:30:21;;;;;;;2.50;2.20;;;;;;;7.10;65.19;95579.00;5116239;28;20096;-63
2022/04/09 01:32:47;;;;;;;2.03;1.67;;;;;;;7.03;65.13;95585.34;5116391;28;20024;-63
2022/04/09 01:35:13;;;;;;;7.95;2.10;;;;;;;7.05;65.28;95586.97;5116222;28;20066;-63
2022/04/09 01:37:38;;;;;;;6.05;2.28;;;;;;;6.98;65.92;95587.31;5116373;28;20064;-63
2022/04/09 01:40:05;;;;;;;4.60;2.17;;;;;;;6.97;65.77;95580.38;5116183;28;20020;-63
2022/04/09 01:42:30;;;;;;;4.47;1.80;;;;;;;6.95;65.83;95577.84;5116224;28;20552;-63
2022/04/09 01:44:56;;;;;;;4.00;2.00;;;;;;;6.93;66.03;95590.91;5115998;28;20122;-63
2022/04/09 01:47:22;;;;;;;3.70;2.00;;;;;;;6.79;66.48;95585.41;5116024;28;20358;-63
2022/04/09 01:49:48;;;;;;;3.63;2.20;;;;;;;6.70;66.68;95584.00;5116043;28;20031;-63
2022/04/09 01:52:13;;;;;;;8.13;2.05;;;;;;;6.70;66.29;95582.25;5116188;28;20020;-63
2022/04/09 01:54:39;;;;;;;6.80;2.20;;;;;;;6.69;66.19;95590.94;5115962;27;20031;-63
2022/04/09 01:57:05;;;;;;;5.30;2.60;;;;;;;6.69;66.20;95587.50;5115920;28;20019;-63
2022/04/09 01:59:31;;;;;;;5.07;2.40;;;;;;;6.75;66.58;95583.84;5115832;28;20205;-63
2022/04/09 02:01:57;;;;;;;4.28;2.25;;;;;;;6.61;67.20;95573.94;5116096;28;20028;-63
2022/04/09 02:04:23;;;;;;;7.53;2.00;;;;;;;6.52;67.39;95583.78;5115859;28;20449;-63
2022/04/09 02:06:50;;;;;;;3.15;1.98;;;;;;;6.52;67.74;95585.53;5115734;28;20023;-63
2022/04/09 02:09:16;;;;;;;4.22;2.13;;;;;;;6.58;66.99;95587.91;5115712;28;20023;-63
2022/04/09 02:11:42;;;;;;;2.75;2.35;;;;;;;6.48;66.72;95592.63;5115608;28;20035;-62
2022/04/09 02:14:09;;;;;;;6.30;2.88;;;;;;;6.41;67.63;95578.97;5115597;28;20019;-62
2022/04/09 02:17:19;;;;;;;6.00;2.40;;;;;;;6.46;68.21;95576.22;5115621;28;20016;-63
2022/04/09 02:19:44;;;;;;;3.10;2.17;;;;;;;6.43;68.32;95564.19;5115803;28;20389;-63
2022/04/09 02:36:15;;;;;;;3.50;2.22;;;;;;;6.35;67.58;95549.81;5092044;28;20059;-63
2022/04/09 02:38:54;;;;;;;3.33;2.10;;;;;;;6.28;68.57;95547.44;5115014;28;20403;-64
2022/04/09 02:41:20;;;;;;;3.92;2.47;;;;;;;6.20;68.69;95554.63;5114900;28;20032;-63
2022/04/09 02:43:46;;;;;;;3.42;2.17;;;;;;;6.11;68.63;95561.00;5115009;28;20027;-63
2022/04/09 02:46:12;;;;;;;4.63;2.22;;;;;;;6.06;68.69;95549.97;5114770;28;20020;-63
2022/04/09 02:48:37;;;;;;;2.88;2.00;;;;;;;6.06;68.90;95553.38;5114885;28;20104;-64
2022/04/09 02:51:03;;;;;;;5.00;2.90;;;;;;;6.14;68.68;95544.50;5114996;27;20407;-63
2022/04/09 02:53:28;;;;;;;6.45;2.15;;;;;;;6.15;68.51;95549.63;5114837;28;20023;-63
2022/04/09 02:55:57;;;;;;;7.35;2.55;;;;;;;6.13;68.55;95550.56;5114753;28;20027;-63
2022/04/09 02:58:24;;;;;;;3.05;2.10;;;;;;;6.12;68.89;95556.66;5115139;28;20612;-64
2022/04/09 03:00:50;;;;;;;3.10;2.38;;;;;;;6.11;68.62;95563.59;5115106;28;20057;-64
2022/04/09 03:03:15;;;;;;;5.85;2.92;;;;;;;6.18;68.29;95566.84;5114332;28;20047;-64
2022/04/09 03:05:41;;;;;;;5.82;2.45;;;;;;;6.16;68.06;95558.25;5114477;28;20389;-64
2022/04/09 03:08:07;;;;;;;5.50;2.63;;;;;;;6.08;68.90;95566.31;5114422;28;20016;-64
2022/04/09 03:13:58;;;;;;;5.68;2.22;;;;;;;6.04;69.08;95570.78;5114933;28;20119;-64
2022/04/09 03:16:24;;;;;;;2.47;1.80;;;;;;;5.98;68.51;95568.38;5114460;28;20024;-64
2022/04/09 03:18:49;;;;;;;3.05;2.38;;;;;;;5.87;68.66;95571.31;5114348;28;20080;-63
2022/04/09 03:21:15;;;;;;;10.13;2.53;;;;;;;5.85;68.59;95574.88;5114226;28;20019;-64
2022/04/09 03:23:45;;;;;;;3.38;2.17;;;;;;;5.79;68.49;95578.53;5114167;28;20034;-64
2022/04/09 03:26:11;;;;;;;3.83;2.13;;;;;;;5.76;69.53;95563.94;5114303;28;20028;-64
2022/04/09 03:36:10;;;;;;;5.13;2.28;;;;;;;5.35;70.52;95559.22;5114352;28;20408;-63
2022/04/09 03:38:35;;;;;;;3.35;2.45;;;;;;;5.24;71.24;95559.56;5114058;28;20054;-63
2022/04/09 03:41:01;;;;;;;9.25;2.10;;;;;;;5.29;71.73;95556.84;5114331;28;20473;-64
2022/04/09 03:47:38;;;;;;;5.70;2.45;;;;;;;5.39;71.40;95553.03;5114392;28;20042;-64
2022/04/09 03:50:04;;;;;;;2.10;1.90;;;;;;;5.48;70.98;95557.06;5114255;28;20029;-63
2022/04/09 04:02:36;;;;;;;7.15;2.47;;;;;;;5.91;70.76;95561.69;5114007;28;20118;-64
2022/04/09 04:05:09;;;;;;;7.07;2.63;;;;;;;5.97;70.93;95558.03;5112637;28;20031;-64
2022/04/09 04:31:07;;;;;;;3.28;2.15;;;;;;;7.38;70.43;95588.31;5118196;28;20055;-64
2022/04/09 04:34:01;;;;;;;2.60;2.22;;;;;;;7.99;69.82;95579.75;5117451;28;20107;-64
2022/04/09 04:36:27;;;;;;;3.40;2.53;;;;;;;8.79;67.43;95582.38;5117402;28;20042;-64
2022/04/09 04:38:52;;;;;;;3.67;1.92;;;;;;;9.59;64.83;95582.94;5117493;28;20020;-64
2022/04/09 04:41:18;;;;;;;5.05;2.10;;;;;;;10.27;63.41;95575.22;5117458;28;20023;-63
2022/04/09 04:44:18;;;;;;;3.47;1.98;;;;;;;10.68;60.73;95565.25;5117403;28;20039;-64
2022/04/09 04:46:44;;;;;;;3.60;1.75;;;;;;;10.86;60.06;95558.19;5117691;28;20034;-64
2022/04/09 04:49:34;;;;;;;3.95;2.13;;;;;;;11.04;60.09;95563.31;5117224;28;20037;-64
2022/04/09 04:52:22;;;;;;;3.67;1.70;;;;;;;11.18;59.73;95573.03;5117473;28;20031;-64
2022/04/09 04:54:48;;;;;;;2.08;1.85;;;;;;;11.49;59.52;95568.69;5117467;28;20097;-64
2022/04/09 04:57:14;;;;;;;4.18;1.77;;;;;;;11.67;59.39;95563.31;5117144;28;20123;-63
2022/04/09 04:59:40;;;;;;;6.90;1.80;;;;;;;11.82;59.47;95553.72;5117082;28;20027;-64
2022/04/09 05:02:06;;;;;;;3.47;1.95;;;;;;;11.98;58.42;95551.06;5116946;28;20031;-64
2022/04/09 05:04:31;;;;;;;3.92;2.00;;;;;;;12.11;58.08;95545.94;5116901;28;20085;-64
2022/04/09 05:06:57;;;;;;;2.05;1.85;;;;;;;12.23;57.85;95547.81;5116845;28;20027;-64
2022/04/09 05:09:23;;;;;;;3.47;2.13;;;;;;;12.38;57.40;95546.03;5116787;28;20035;-64
2022/04/09 05:11:49;;;;;;;3.17;1.83;;;;;;;12.57;57.17;95546.69;5116769;28;20035;-64
2022/04/09 05:14:14;;;;;;;4.72;1.95;;;;;;;12.81;55.84;95546.94;5116784;28;20377;-63
2022/04/09 05:16:40;;;;;;;3.85;1.65;;;;;;;13.04;54.95;95535.91;5116739;28;20030;-64
2022/04/09 05:19:06;;;;;;;3.80;1.95;;;;;;;13.24;54.38;95539.88;5116739;28;20023;-64
2022/04/09 05:21:31;;;;;;;4.35;1.85;;;;;;;13.53;57.93;95537.16;5116512;28;20027;-64
2022/04/09 05:23:57;;;;;;;6.07;2.42;;;;;;;13.90;58.36;95521.56;5116594;28;20023;-64
2022/04/09 05:26:23;;;;;;;2.00;1.52;;;;;;;14.26;57.57;95519.16;5115995;28;20023;-63
2022/04/09 05:28:53;;;;;;;3.85;1.90;;;;;;;14.43;55.06;95526.81;5116607;28;20071;-64
2022/04/09 05:31:27;;;;;;;3.20;1.67;;;;;;;14.88;54.41;95524.56;5116514;28;20028;-63
2022/04/09 05:33:54;;;;;;;4.13;1.75;;;;;;;15.13;51.58;95533.31;5116432;28;20063;-63
2022/04/09 05:36:20;;;;;;;6.75;2.05;;;;;;;15.16;50.68;95537.50;5116131;28;20385;-64
2022/04/09 05:38:45;;;;;;;9.65;4.45;;;;;;;14.90;50.96;95534.97;5116407;28;20108;-63
2022/04/09 05:41:11;;;;;;;3.08;2.60;;;;;;;14.77;51.32;95532.34;5116273;28;20485;-63
2022/04/09 05:43:36;;;;;;;5.55;2.25;;;;;;;14.95;51.61;95535.47;5116083;28;20023;-64
2022/04/09 05:46:02;;;;;;;3.28;2.22;;;;;;;15.38;49.51;95536.78;5115955;28;20027;-63
2022/04/09 05:48:28;;;;;;;5.22;2.65;;;;;;;15.55;49.17;95526.78;5116079;28;20068;-64
2022/04/09 05:50:53;;;;;;;4.95;2.10;;;;;;;15.62;48.13;95528.00;5116113;28;20477;-64
2022/04/09 05:53:19;;;;;;;7.10;3.10;;;;;;;15.56;48.45;95527.66;5116105;27;20499;-63
2022/04/09 05:55:45;;;;;;;9.55;2.60;;;;;;;15.50;48.67;95527.13;5115946;28;20024;-63
2022/04/09 05:58:11;;;;;;;2.55;2.30;;;;;;;15.62;49.05;95521.94;5115786;28;20050;-63
2022/04/09 06:00:38;;;;;;;3.78;2.03;;;;;;;16.22;46.55;95523.66;5115776;28;20020;-64
2022/04/09 06:03:03;;;;;;;3.67;2.53;;;;;;;16.54;45.43;95536.13;5115747;28;20020;-63
2022/04/09 06:05:29;;;;;;;5.28;2.70;;;;;;;16.98;45.89;95538.00;5115670;28;20492;-63
2022/04/09 06:07:55;;;;;;;8.73;2.60;;;;;;;17.74;44.24;95542.50;5115653;28;20473;-64
2022/04/09 06:10:21;;;;;;;9.23;2.20;;;;;;;18.40;42.21;95539.72;5115668;28;20019;-63
2022/04/09 06:12:46;;;;;;;5.63;1.92;;;;;;;18.64;39.90;95536.78;5115580;27;20028;-64
2022/04/09 06:15:12;;;;;;;5.95;1.90;;;;;;;18.92;40.20;95542.31;5115668;28;20153;-64
2022/04/09 06:17:39;;;;;;;3.65;1.90;;;;;;;19.01;39.40;95540.66;5115648;28;20065;-64
2022/04/09 06:20:06;;;;;;;2.58;1.77;;;;;;;18.99;39.99;95542.59;5115460;28;20031;-64
2022/04/09 06:22:32;;;;;;;4.18;1.90;;;;;;;18.91;39.57;95535.31;5115386;28;20030;-63
2022/04/09 06:24:58;;;;;;;3.33;1.92;;;;;;;19.24;40.53;95534.31;5115293;28;20496;-64
2022/04/09 06:27:24;;;;;;;9.13;1.80;;;;;;;19.61;38.78;95532.81;5115417;28;20450;-63
2022/04/09 06:29:50;;;;;;;10.18;1.88;;;;;;;19.68;38.66;95531.28;5115405;27;20020;-64
2022/04/09 06:32:15;;;;;;;4.63;2.10;;;;;;;19.66;38.95;95539.38;5115260;28;20489;-63
2022/04/09 06:34:41;;;;;;;4.10;2.05;;;;;;;19.47;39.62;95542.84;5115148;28;20027;-64
2022/04/09 06:37:07;;;;;;;3.00;1.73;;;;;;;19.95;38.78;95541.19;5114898;28;20052;-63
2022/04/09 06:39:34;;;;;;;5.22;2.35;;;;;;;20.43;36.81;95543.91;5114257;28;20019;-63
2022/04/09 06:42:00;;;;;;;5.72;2.00;;;;;;;20.82;36.90;95542.09;5115068;28;20059;-64
2022/04/09 06:44:26;;;;;;;4.15;1.92;;;;;;;21.11;35.97;95541.13;5115158;28;20024;-64
2022/04/09 06:46:52;;;;;;;5.05;1.95;;;;;;;21.22;34.91;95534.75;5114819;28;20507;-64
2022/04/09 06:49:18;;;;;;;6.40;2.08;;;;;;;21.30;35.64;95534.00;5114923;28;20036;-64
2022/04/09 06:51:47;;;;;;;4.63;2.25;;;;;;;21.69;34.98;95539.06;5114834;28;20092;-64
2022/04/09 06:54:13;;;;;;;5.07;1.90;;;;;;;22.22;32.80;95530.34;5114888;28;20055;-64
2022/04/09 06:56:39;;;;;;;2.80;2.00;;;;;;;22.48;33.67;95537.50;5114729;28;20020;-65
2022/04/09 06:59:05;;;;;;;2.25;1.75;;;;;;;22.32;32.04;95540.91;5114659;27;20027;-64
2022/04/09 07:01:31;;;;;;;5.85;1.70;;;;;;;22.69;31.65;95545.16;5114582;28;20020;-65
2022/04/09 07:03:57;;;;;;;4.75;1.90;;;;;;;22.69;31.10;95542.47;5114628;28;20151;-64
2022/04/09 07:06:24;;;;;;;5.93;1.75;;;;;;;22.93;31.24;95540.91;5114479;28;20489;-64
2022/04/09 07:08:55;;;;;;;5.55;1.60;;;;;;;23.17;30.83;95544.66;5114586;28;20027;-64
2022/04/09 07:11:20;;;;;;;3.13;1.50;;;;;;;23.32;30.41;95544.88;5114283;28;20064;-64
2022/04/09 07:13:46;;;;;;;3.50;1.75;;;;;;;23.56;31.48;95537.97;5114390;28;20497;-63
2022/04/09 07:16:12;;;;;;;2.70;1.90;;;;;;;23.54;30.58;95531.13;5114425;28;20385;-64
2022/04/09 07:18:38;;;;;;;4.53;1.90;;;;;;;23.85;30.37;95534.00;5114414;28;20028;-64
2022/04/09 07:21:04;;;;;;;4.40;2.05;;;;;;;23.84;30.40;95532.31;5114153;28;20023;-64
2022/04/09 07:23:31;;;;;;;3.47;1.58;;;;;;;23.66;28.97;95536.97;5114196;28;20027;-64
2022/04/09 07:25:58;;;;;;;5.53;1.92;;;;;;;23.26;30.77;95532.19;5114124;28;20047;-64
2022/04/09 07:28:24;;;;;;;2.63;1.60;;;;;;;23.26;29.42;95537.53;5114176;28;20065;-64
2022/04/09 07:30:50;;;;;;;3.83;1.67;;;;;;;23.21;30.63;95538.00;5114170;28;20528;-64
2022/04/09 07:33:16;;;;;;;9.25;1.83;;;;;;;22.99;31.47;95525.28;5114155;28;20115;-64
2022/04/09 07:35:42;;;;;;;4.18;1.63;;;;;;;23.13;30.67;95529.16;5114036;27;20435;-64
2022/04/09 07:38:08;;;;;;;3.80;1.65;;;;;;;23.41;29.29;95526.25;5113667;28;20036;-64
2022/04/09 07:40:36;;;;;;;4.80;2.17;;;;;;;23.38;30.62;95529.28;5113934;28;20042;-64
2022/04/09 07:43:02;;;;;;;4.63;1.55;;;;;;;23.42;30.91;95519.94;5114001;28;20110;-64
2022/04/09 07:45:28;;;;;;;2.85;1.65;;;;;;;23.52;30.20;95517.09;5113874;28;20038;-64
2022/04/09 07:48:00;;;;;;;5.75;1.90;;;;;;;23.80;29.84;95516.78;5113897;28;20024;-64
2022/04/09 07:50:26;;;;;;;3.70;1.85;;;;;;;23.97;29.67;95513.13;5113726;28;20027;-64
2022/04/09 07:52:53;;;;;;;5.40;1.80;;;;;;;23.83;30.50;95519.13;5113788;28;20020;-64
2022/04/09 07:55:19;;;;;;;3.08;1.83;;;;;;;24.04;31.00;95512.44;5113744;28;20114;-64
2022/04/09 07:57:54;;;;;;;2.42;1.85;;;;;;;24.34;32.52;95512.78;5113820;28;20055;-64
2022/04/09 08:00:22;;;;;;;6.35;2.20;;;;;;;24.72;29.99;95517.53;5113789;28;20036;-64
2022/04/09 08:02:48;;;;;;;4.47;2.10;;;;;;;25.11;29.78;95513.22;5113628;28;20474;-64
2022/04/09 08:05:18;;;;;;;5.47;1.95;;;;;;;25.06;30.08;95515.56;5113577;28;20054;-64
2022/04/09 08:07:44;;;;;;;5.00;2.08;;;;;;;24.52;31.04;95511.72;5113651;28;20374;-64
2022/04/09 08:10:14;;;;;;;4.45;2.00;;;;;;;24.60;28.88;95509.03;5113694;28;20020;-65
2022/04/09 08:12:42;;;;;;;3.08;1.88;;;;;;;24.91;29.44;95505.63;5113511;28;20491;-64
2022/04/09 08:15:09;;;;;;;2.17;1.50;;;;;;;24.50;29.17;95500.41;5113666;28;20540;-65
2022/04/09 08:17:39;;;;;;;9.52;1.70;;;;;;;24.46;29.98;95499.88;5113579;28;20027;-64
2022/04/09 08:20:07;;;;;;;9.32;2.10;;;;;;;24.65;30.27;95498.66;5113806;28;20027;-64
2022/04/09 08:22:32;;;;;;;4.07;1.90;;;;;;;24.64;29.93;95504.19;5113772;28;20119;-64
2022/04/09 08:24:58;;;;;;;5.30;2.10;;;;;;;24.21;33.51;95495.44;5113375;28;20110;-64
2022/04/09 08:27:24;;;;;;;3.83;1.92;;;;;;;24.06;31.35;95497.94;5113517;28;20080;-64
2022/04/09 08:29:50;;;;;;;7.07;2.80;;;;;;;23.87;32.54;95501.75;5113401;28;20508;-64
2022/04/09 08:32:16;;;;;;;4.63;1.88;;;;;;;23.56;34.36;95500.59;5113457;28;20508;-64
2022/04/09 08:34:41;;;;;;;7.25;2.13;;;;;;;23.24;34.54;95496.88;5113380;28;20062;-64
2022/04/09 08:37:07;;;;;;;6.57;1.75;;;;;;;23.53;32.69;95494.75;5113140;28;20512;-64
2022/04/09 08:39:34;;;;;;;6.57;2.20;;;;;;;23.85;32.39;95501.13;5113396;28;20023;-64
2022/04/09 08:42:02;;;;;;;3.47;1.85;;;;;;;23.59;32.21;95500.28;5113392;28;20027;-64
2022/04/09 08:44:30;;;;;;;8.52;2.17;;;;;;;23.63;33.12;95491.94;5113311;28;20373;-64
2022/04/09 08:46:57;;;;;;;4.18;1.80;;;;;;;23.50;32.67;95500.44;5113267;28;20030;-64
2022/04/09 08:49:24;;;;;;;5.88;1.73;;;;;;;23.40;33.40;95498.75;5113182;28;20028;-64
2022/04/09 08:51:51;;;;;;;7.13;1.88;;;;;;;23.72;32.83;95496.28;5113119;28;20030;-63
2022/04/09 08:54:18;;;;;;;2.58;1.88;;;;;;;23.78;32.72;95494.78;5113313;28;20504;-64
2022/04/09 08:56:49;;;;;;;2.13;1.63;;;;;;;23.83;33.28;95490.59;5111629;28;20043;-64
2022/04/09 08:59:15;;;;;;;4.65;2.13;;;;;;;24.13;32.18;95486.56;5112606;28;20036;-64
2022/04/09 09:01:41;;;;;;;5.70;1.83;;;;;;;24.18;31.61;95486.94;5113551;28;20016;-64
2022/04/09 09:04:07;;;;;;;4.30;2.10;;;;;;;24.54;30.90;95481.19;5116516;28;20030;-64
2022/04/09 09:06:35;;;;;;;5.45;1.77;;;;;;;24.67;32.53;95477.94;5116719;28;20419;-64
2022/04/09 09:09:04;;;;;;;3.47;1.73;;;;;;;24.35;31.59;95482.41;5116865;28;20016;-63
2022/04/09 09:11:44;;;;;;;8.70;1.88;;;;;;;24.69;31.84;95481.28;5116296;28;20441;-65
2022/04/09 09:14:10;;;;;;;6.40;2.03;;;;;;;24.42;32.23;95472.69;5096585;28;20038;-60
2022/04/09 09:16:36;;;;;;;5.80;2.55;;;;;;;24.63;30.36;95475.78;5096619;28;20036;-65
2022/04/09 09:19:06;;;;;;;4.95;1.83;;;;;;;24.70;30.39;95477.59;5108635;28;20024;-60
2022/04/09 09:21:32;;;;;;;;;;;;;;;24.50;31.66;95479.84;5116802;28;20135;-57
2022/04/09 09:24:09;;;;;;;3.17;1.77;;;;;;;24.19;29.71;95475.25;5116569;28;20371;-56
2022/04/09 09:26:40;;;;;;;5.45;2.25;;;;;;;23.60;33.53;95477.91;5116584;28;20065;-59
2022/04/09 09:29:08;;;;;;;6.93;1.92;;;;;;;23.72;32.85;95474.94;5116722;28;20525;-61
2022/04/09 09:31:45;;;;;;;5.50;2.05;;;;;;;23.66;31.52;95465.75;5116716;28;20032;-53
2022/04/09 09:34:20;;;;;;;3.47;1.75;;;;;;;23.58;31.94;95458.59;5115876;28;20072;-60
2022/04/09 09:36:47;;;;;;;3.95;2.00;;;;;;;23.61;32.69;95465.41;5116467;28;20044;-55
2022/04/09 09:39:18;;;;;;;4.30;1.65;;;;;;;23.84;32.00;95464.75;5116567;28;20034;-62
2022/04/09 09:42:03;;;;;;;3.40;1.70;;;;;;;23.61;32.16;95460.09;5116245;28;20023;-50
2022/04/09 09:44:34;;;;;;;8.10;2.00;;;;;;;23.68;32.13;95455.75;5116319;28;20456;-60
2022/04/09 09:47:09;;;;;;;4.88;1.52;;;;;;;23.67;31.86;95456.75;5116292;28;20435;-57
2022/04/09 09:49:56;;;;;;;3.38;1.60;;;;;;;23.63;32.38;95460.72;5115707;28;20035;-59
2022/04/09 09:52:27;;;;;;;5.32;1.95;;;;;;;23.64;31.33;95456.25;5116049;28;20031;-57
2022/04/09 09:54:58;;;;;;;;;;;;;;;23.58;33.98;95450.59;5116378;28;20032;-60
2022/04/09 09:57:29;;;;;;;7.10;2.22;;;;;;;23.19;32.12;95444.03;5115977;28;19968;-62
2022/04/09 09:59:58;;;;;;;2.67;1.80;;;;;;;23.16;34.87;95440.84;5115957;27;20102;-58
2022/04/09 10:02:26;;;;;;;3.83;2.00;;;;;;;23.30;34.56;95442.03;5115835;28;20023;-58
2022/04/09 10:04:52;;;;;;;4.88;1.73;;;;;;;23.43;33.03;95438.91;5115516;28;20111;-64
2022/04/09 10:07:19;;;;;;;6.60;2.05;;;;;;;23.61;33.56;95436.06;5115794;28;20047;-59
2022/04/09 10:09:49;;;;;;;2.38;1.42;;;;;;;23.41;32.10;95430.22;5116080;28;20023;-62
2022/04/09 10:12:18;;;;;;;2.92;1.65;;;;;;;23.25;33.32;95428.34;5115831;28;20481;-60
2022/04/09 10:14:50;;;;;;;2.65;1.77;;;;;;;23.23;33.31;95426.69;5114763;28;20031;-60
2022/04/09 10:17:19;;;;;;;4.90;1.50;;;;;;;23.00;32.99;95431.81;5115798;28;20111;-58
2022/04/09 10:19:55;;;;;;;5.80;1.67;;;;;;;23.07;32.71;95416.84;5115563;28;20028;-65
2022/04/09 10:22:26;;;;;;;8.80;1.98;;;;;;;22.96;34.09;95414.47;5115674;28;20389;-60
2022/04/09 10:24:54;;;;;;;5.55;1.70;;;;;;;22.83;33.74;95414.94;5115548;28;20028;-57
2022/04/09 10:27:40;;;;;;;5.90;1.55;;;;;;;22.92;33.34;95403.31;5115415;28;20504;-63
2022/04/09 10:30:18;;;;;;;4.00;1.27;;;;;;;23.28;30.72;95404.00;5115567;28;20038;-63
2022/04/09 10:32:51;;;;;;;3.03;1.52;;;;;;;23.43;31.78;95398.88;5115617;28;20019;-58
2022/04/09 10:35:38;;;;;;;2.92;1.52;;;;;;;23.42;32.73;95395.38;5115040;28;20028;-63
2022/04/09 10:38:06;;;;;;;4.95;1.50;;;;;;;23.62;32.57;95394.22;5115210;28;20549;-62
2022/04/09 10:40:33;;;;;;;2.17;1.25;;;;;;;23.71;29.26;95382.50;5115235;28;20085;-61
2022/04/09 10:42:59;;;;;;;4.85;1.50;;;;;;;23.83;31.23;95383.84;5115255;28;20027;-68
2022/04/09 10:45:27;;;;;;;3.45;1.20;;;;;;;24.04;33.69;95377.09;5114938;28;20031;-60
2022/04/09 10:48:14;;;;;;;2.25;1.42;;;;;;;24.34;28.66;95379.19;5115136;28;20477;-61
2022/04/09 10:51:11;;;;;;;2.03;1.40;;;;;;;24.20;29.61;95362.88;5093393;28;20028;-56
2022/04/09 10:53:47;;;;;;;3.17;1.67;;;;;;;24.42;31.88;95367.66;5086092;28;20397;-60
2022/04/09 10:56:20;;;;;;;2.25;1.30;;;;;;;24.41;28.25;95372.16;5107895;28;20030;-56
2022/04/09 10:59:16;;;;;;;4.45;1.33;;;;;;;24.44;28.19;95363.78;5115035;28;20030;-62
2022/04/09 11:01:50;;;;;;;3.03;1.00;;;;;;;24.63;26.55;95356.38;5114752;28;20451;-57
2022/04/09 11:04:37;;;;;;;2.05;1.23;;;;;;;24.94;28.91;95357.38;5114047;28;20055;-67
2022/04/09 11:07:23;;;;;;;1.88;0.90;;;;;;;24.97;26.92;95357.84;5114982;27;20548;-61
2022/04/09 11:09:58;;;;;;;3.40;1.02;;;;;;;24.94;25.06;95355.53;5114934;28;20028;-64
2022/04/09 11:12:39;;;;;;;6.03;1.20;;;;;;;24.90;26.76;95356.91;5114577;28;20034;-58
2022/04/09 11:15:13;;;;;;;5.18;1.10;;;;;;;24.89;27.06;95349.06;5114498;28;20027;-57
2022/04/09 11:17:43;;;;;;;4.88;1.70;;;;;;;24.92;26.44;95351.38;5114172;28;20106;-55
2022/04/09 11:20:14;;;;;;;4.80;1.33;;;;;;;25.09;27.37;95344.91;5114972;28;20034;-60
2022/04/09 11:22:43;;;;;;;1.33;0.90;;;;;;;25.27;26.08;95348.25;5114744;28;20036;-58
2022/04/09 11:25:21;;;;;;;2.47;1.33;;;;;;;25.21;25.91;95336.44;5113931;28;20042;-65
2022/04/09 11:27:47;;;;;;;2.80;0.90;;;;;;;25.11;24.63;95334.03;5114435;28;20441;-56
2022/04/09 11:30:15;;;;;;;2.85;1.30;;;;;;;25.11;26.09;95331.34;5114913;28;20044;-57
2022/04/09 11:32:45;;;;;;;5.35;1.42;;;;;;;25.16;26.73;95334.31;5114553;28;20030;-58
2022/04/09 11:35:11;;;;;;;2.20;1.02;;;;;;;25.35;26.99;95319.59;5114767;28;20092;-59
2022/04/09 11:37:49;;;;;;;2.22;1.25;;;;;;;25.27;24.71;95325.03;5113669;28;20040;-59
2022/04/09 11:40:16;;;;;;;2.10;1.30;;;;;;;25.16;25.00;95318.25;5093904;28;20028;-61
2022/04/09 11:42:52;;;;;;;7.63;1.38;;;;;;;24.95;25.96;95301.03;5093529;28;20385;-53
2022/04/09 11:45:29;;;;;;;1.75;1.10;;;;;;;25.09;26.18;95302.09;5093579;28;20539;-62
2022/04/09 11:47:59;;;;;;;2.53;1.38;;;;;;;25.21;25.80;95305.19;5103470;28;20038;-58
2022/04/09 11:50:30;;;;;;;1.83;0.98;;;;;;;25.18;25.40;95299.34;5113960;28;20381;-62
2022/04/09 11:52:56;;;;;;;1.85;1.08;;;;;;;25.16;25.81;95296.03;5113934;28;20366;-55
2022/04/09 11:55:22;;;;;;;4.57;1.30;;;;;;;25.35;26.16;95287.47;5114218;28;20026;-62
2022/04/09 11:57:53;;;;;;;5.57;1.05;;;;;;;25.46;25.88;95290.72;5113808;28;20020;-62
2022/04/09 12:00:22;;;;;;;;;;;;;;;25.59;25.83;95290.97;5114607;28;20051;-54
2022/04/09 12:02:48;;;;;;;3.20;1.40;;;;;;;25.33;27.82;95280.66;5113330;28;20347;-65
2022/04/09 12:05:14;;;;;;;4.93;1.20;;;;;;;25.40;27.63;95281.59;5113677;28;20024;-59
2022/04/09 12:07:45;;;;;;;2.97;1.02;;;;;;;25.32;25.13;95270.97;5113824;28;20529;-54
2022/04/09 12:10:27;;;;;;;4.97;1.02;;;;;;;25.23;27.12;95276.38;5113952;28;20038;-53
2022/04/09 12:13:03;;;;;;;13.25;1.50;;;;;;;25.34;26.53;95277.81;5113859;28;20032;-60
2022/04/09 12:15:34;;;;;;;4.43;1.25;;;;;;;25.16;26.74;95277.31;5112450;28;20058;-64
2022/04/09 12:18:01;;;;;;;3.05;1.15;;;;;;;24.96;27.28;95267.13;5113354;28;20016;-63
2022/04/09 12:20:34;;;;;;;2.33;1.30;;;;;;;24.93;25.13;95259.44;5113435;28;20031;-57
2022/04/09 12:23:00;;;;;;;2.05;1.17;;;;;;;24.61;25.78;95254.97;5112697;28;20380;-58
2022/04/09 12:25:39;;;;;;;1.63;1.00;;;;;;;24.78;26.33;95254.03;5113090;28;20024;-50
2022/04/09 12:28:17;;;;;;;2.78;1.63;;;;;;;24.80;27.60;95249.34;5113317;28;20037;-64
2022/04/09 12:30:45;;;;;;;4.55;1.40;;;;;;;24.76;27.66;95248.00;5113259;28;20051;-63
2022/04/09 12:33:12;;;;;;;3.33;1.80;;;;;;;24.90;28.10;95249.97;5112753;28;20507;-53
2022/04/09 12:35:39;;;;;;;4.57;1.30;;;;;;;24.81;27.42;95234.94;5113301;28;20095;-54
2022/04/09 12:38:05;;;;;;;1.42;1.20;;;;;;;24.78;28.04;95230.81;5116106;28;20048;-57
2022/04/09 12:40:32;;;;;;;6.45;1.52;;;;;;;24.82;29.79;95231.25;5117454;28;20022;-53
2022/04/09 12:43:02;;;;;;;7.40;1.50;;;;;;;24.78;27.91;95214.78;5117379;28;20031;-55
2022/04/09 12:45:28;;;;;;;6.20;1.77;;;;;;;24.84;27.37;95215.88;5117797;28;20040;-55
2022/04/09 12:47:58;;;;;;;3.67;1.50;;;;;;;24.63;27.74;95224.56;5117624;28;20541;-62
2022/04/09 12:50:35;;;;;;;2.75;1.27;;;;;;;24.50;28.28;95225.16;5117786;28;20541;-64
2022/04/09 12:53:05;;;;;;;1.88;1.48;;;;;;;24.45;29.13;95226.53;5118059;28;20102;-56
2022/04/09 12:55:32;;;;;;;6.07;1.50;;;;;;;24.40;28.98;95220.88;5117296;28;20119;-59
2022/04/09 12:58:00;;;;;;;4.22;1.40;;;;;;;24.45;28.06;95217.69;5117115;28;20024;-53
2022/04/09 13:00:32;;;;;;;2.28;1.30;;;;;;;24.46;28.75;95204.16;5116988;28;20076;-63
2022/04/09 13:03:00;;;;;;;4.45;1.85;;;;;;;24.46;29.42;95209.50;5117323;28;20028;-57
2022/04/09 13:05:25;;;;;;;2.55;1.30;;;;;;;24.54;28.43;95213.09;5117345;28;20077;-56
2022/04/09 13:07:51;;;;;;;3.20;1.15;;;;;;;24.58;28.65;95204.56;5116503;28;20035;-55
2022/04/09 13:10:16;;;;;;;8.13;1.30;;;;;;;24.70;28.89;95190.75;5117710;28;20068;-56
2022/04/09 13:12:42;;;;;;;2.75;1.50;;;;;;;24.74;28.73;95200.06;5117764;28;20663;-61
2022/04/09 13:15:10;;;;;;;2.88;1.50;;;;;;;24.86;28.32;95193.28;5117355;28;20020;-57
2022/04/09 13:17:36;;;;;;;3.65;1.33;;;;;;;24.73;29.38;95182.38;5117225;28;20030;-61
2022/04/09 13:20:04;;;;;;;7.85;1.40;;;;;;;24.75;28.27;95193.75;5117073;28;20032;-59
2022/04/09 13:22:31;;;;;;;3.72;1.40;;;;;;;24.61;28.48;95185.50;5117457;28;20034;-56
2022/04/09 13:24:58;;;;;;;2.53;1.27;;;;;;;24.41;27.42;95178.97;5117477;28;20027;-59
2022/04/09 13:27:24;;;;;;;3.03;1.05;;;;;;;24.31;27.95;95193.41;5116917;28;20168;-59
2022/04/09 13:29:50;;;;;;;2.08;1.23;;;;;;;24.29;28.56;95182.06;5117244;28;20187;-60
2022/04/09 13:32:17;;;;;;;3.40;2.00;;;;;;;24.23;28.80;95183.59;5117379;28;20035;-55